sensor_id;sensor_type;location;lat;lon;timestamp;pressure;altitude;pressure_sealevel;temperature;humidity
64610;BME280;51019;46.090;6.350;2023-01-29T00:00:10;97242.72;;;-1.44;100.00
64610;BME280;51019;46.090;6.350;2023-01-29T00:02:40;97237.47;;;-1.41;100.00
64610;BME280;51019;46.090;6.350;2023-01-29T00:05:10;97244.28;;;-1.40;100.00
64610;BME280;51019;46.090;6.350;2023-01-29T00:07:38;97239.94;;;-1.38;100.00
64610;BME280;51019;46.090;6.350;2023-01-29T00:10:05;97241.41;;;-1.31;100.00
64610;BME280;51019;46.090;6.350;2023-01-29T00:12:34;97230.81;;;-1.47;100.00
64610;BME280;51019;46.090;6.350;2023-01-29T00:15:03;97247.81;;;-1.43;100.00
64610;BME280;51019;46.090;6.350;2023-01-29T00:17:32;97220.00;;;-1.57;100.00
64610;BME280;51019;46.090;6.350;2023-01-29T00:20:02;97239.34;;;-1.22;100.00
64610;BME280;51019;46.090;6.350;2023-01-29T00:22:30;97253.53;;;-1.35;100.00
64610;BME280;51019;46.090;6.350;2023-01-29T00:24:57;97223.81;;;-1.43;100.00
64610;BME280;51019;46.090;6.350;2023-01-29T00:27:26;97159.41;;;-1.89;100.00
64610;BME280;51019;46.090;6.350;2023-01-29T00:29:55;97240.03;;;-1.41;100.00
64610;BME280;51019;46.090;6.350;2023-01-29T00:32:37;97245.28;;;-1.44;100.00
64610;BME280;51019;46.090;6.350;2023-01-29T00:35:08;97213.53;;;-1.43;100.00
64610;BME280;51019;46.090;6.350;2023-01-29T00:37:36;97234.25;;;-1.23;100.00
64610;BME280;51019;46.090;6.350;2023-01-29T00:40:05;97216.00;;;-1.40;100.00
64610;BME280;51019;46.090;6.350;2023-01-29T00:42:34;97229.75;;;-1.41;100.00
64610;BME280;51019;46.090;6.350;2023-01-29T00:45:19;97220.06;;;-1.58;100.00
64610;BME280;51019;46.090;6.350;2023-01-29T00:47:46;97230.88;;;-1.49;100.00
64610;BME280;51019;46.090;6.350;2023-01-29T00:50:20;97223.53;;;-1.59;100.00
64610;BME280;51019;46.090;6.350;2023-01-29T00:52:48;97205.94;;;-1.71;100.00
64610;BME280;51019;46.090;6.350;2023-01-29T00:55:19;97181.50;;;-1.83;100.00
64610;BME280;51019;46.090;6.350;2023-01-29T00:57:47;97219.47;;;-1.41;100.00
64610;BME280;51019;46.090;6.350;2023-01-29T01:00:16;97224.34;;;-1.34;100.00
64610;BME280;51019;46.090;6.350;2023-01-29T01:02:45;97223.16;;;-1.49;100.00
64610;BME280;51019;46.090;6.350;2023-01-29T01:05:33;97228.44;;;-1.53;100.00
64610;BME280;51019;46.090;6.350;2023-01-29T01:08:03;97231.22;;;-1.34;100.00
64610;BME280;51019;46.090;6.350;2023-01-29T01:11:02;97215.97;;;-1.64;100.00
64610;BME280;51019;46.090;6.350;2023-01-29T01:13:30;97237.75;;;-1.49;100.00
64610;BME280;51019;46.090;6.350;2023-01-29T01:15:59;97243.41;;;-1.39;100.00
64610;BME280;51019;46.090;6.350;2023-01-29T01:18:28;97238.88;;;-1.58;100.00
64610;BME280;51019;46.090;6.350;2023-01-29T01:21:00;97229.44;;;-1.57;100.00
64610;BME280;51019;46.090;6.350;2023-01-29T01:23:28;97239.19;;;-1.67;100.00
64610;BME280;51019;46.090;6.350;2023-01-29T01:25:56;97235.09;;;-1.72;100.00
64610;BME280;51019;46.090;6.350;2023-01-29T01:28:24;97189.31;;;-2.12;100.00
64610;BME280;51019;46.090;6.350;2023-01-29T01:30:56;97205.56;;;-1.86;100.00
64610;BME280;51019;46.090;6.350;2023-01-29T01:33:26;97250.66;;;-1.77;100.00
64610;BME280;51019;46.090;6.350;2023-01-29T01:35:53;97226.38;;;-1.93;100.00
64610;BME280;51019;46.090;6.350;2023-01-29T01:38:23;97205.25;;;-2.03;100.00
64610;BME280;51019;46.090;6.350;2023-01-29T01:40:51;97261.38;;;-1.64;100.00
64610;BME280;51019;46.090;6.350;2023-01-29T01:43:18;97269.00;;;-1.61;100.00
64610;BME280;51019;46.090;6.350;2023-01-29T01:45:47;97241.41;;;-1.81;100.00
64610;BME280;51019;46.090;6.350;2023-01-29T01:48:22;97262.28;;;-1.65;100.00
64610;BME280;51019;46.090;6.350;2023-01-29T01:50:58;97268.41;;;-1.69;100.00
64610;BME280;51019;46.090;6.350;2023-01-29T01:53:32;97256.25;;;-1.64;100.00
64610;BME280;51019;46.090;6.350;2023-01-29T01:56:06;97275.78;;;-1.59;100.00
64610;BME280;51019;46.090;6.350;2023-01-29T01:58:37;97272.81;;;-1.73;100.00
64610;BME280;51019;46.090;6.350;2023-01-29T02:01:17;97239.25;;;-1.95;100.00
64610;BME280;51019;46.090;6.350;2023-01-29T02:03:49;97271.13;;;-1.74;100.00
64610;BME280;51019;46.090;6.350;2023-01-29T02:06:38;97275.16;;;-1.67;100.00
64610;BME280;51019;46.090;6.350;2023-01-29T02:09:30;97281.41;;;-1.74;100.00
64610;BME280;51019;46.090;6.350;2023-01-29T02:12:04;97275.69;;;-1.82;100.00
64610;BME280;51019;46.090;6.350;2023-01-29T02:14:34;97264.56;;;-1.83;100.00
64610;BME280;51019;46.090;6.350;2023-01-29T02:17:04;97284.59;;;-1.67;100.00
64610;BME280;51019;46.090;6.350;2023-01-29T02:19:43;97291.03;;;-1.54;100.00
64610;BME280;51019;46.090;6.350;2023-01-29T02:28:26;97296.91;;;-1.77;100.00
64610;BME280;51019;46.090;6.350;2023-01-29T02:31:00;97300.06;;;-1.69;100.00
64610;BME280;51019;46.090;6.350;2023-01-29T02:33:41;97290.81;;;-1.73;100.00
64610;BME280;51019;46.090;6.350;2023-01-29T02:36:20;97295.84;;;-1.70;100.00
64610;BME280;51019;46.090;6.350;2023-01-29T02:39:03;97279.22;;;-1.86;100.00
64610;BME280;51019;46.090;6.350;2023-01-29T02:41:40;97303.66;;;-1.73;100.00
64610;BME280;51019;46.090;6.350;2023-01-29T02:44:12;97301.72;;;-1.66;100.00
64610;BME280;51019;46.090;6.350;2023-01-29T02:46:49;97314.34;;;-1.59;100.00
64610;BME280;51019;46.090;6.350;2023-01-29T02:49:22;97321.44;;;-1.67;100.00
64610;BME280;51019;46.090;6.350;2023-01-29T02:51:59;97312.34;;;-1.77;100.00
64610;BME280;51019;46.090;6.350;2023-01-29T02:54:33;97292.34;;;-1.94;100.00
64610;BME280;51019;46.090;6.350;2023-01-29T02:57:07;97332.84;;;-1.75;100.00
64610;BME280;51019;46.090;6.350;2023-01-29T02:59:44;97337.94;;;-1.74;100.00
64610;BME280;51019;46.090;6.350;2023-01-29T03:02:17;97340.53;;;-1.74;100.00
64610;BME280;51019;46.090;6.350;2023-01-29T03:04:51;97344.59;;;-1.68;100.00
64610;BME280;51019;46.090;6.350;2023-01-29T03:07:24;97332.91;;;-1.77;100.00
64610;BME280;51019;46.090;6.350;2023-01-29T03:10:26;97338.03;;;-1.77;100.00
64610;BME280;51019;46.090;6.350;2023-01-29T03:12:59;97349.22;;;-1.78;100.00
64610;BME280;51019;46.090;6.350;2023-01-29T03:15:31;97344.22;;;-1.83;100.00
64610;BME280;51019;46.090;6.350;2023-01-29T03:18:07;97328.13;;;-1.89;100.00
64610;BME280;51019;46.090;6.350;2023-01-29T03:20:40;97344.47;;;-1.64;100.00
64610;BME280;51019;46.090;6.350;2023-01-29T03:23:16;97315.13;;;-1.83;100.00
64610;BME280;51019;46.090;6.350;2023-01-29T03:25:56;97325.19;;;-1.77;100.00
64610;BME280;51019;46.090;6.350;2023-01-29T03:28:43;97350.81;;;-1.74;100.00
64610;BME280;51019;46.090;6.350;2023-01-29T03:31:29;97337.06;;;-1.73;100.00
64610;BME280;51019;46.090;6.350;2023-01-29T03:34:16;97363.44;;;-1.68;100.00
64610;BME280;51019;46.090;6.350;2023-01-29T03:36:52;97363.56;;;-1.71;100.00
64610;BME280;51019;46.090;6.350;2023-01-29T03:39:23;97336.06;;;-1.95;100.00
64610;BME280;51019;46.090;6.350;2023-01-29T03:41:57;97334.84;;;-1.84;100.00
64610;BME280;51019;46.090;6.350;2023-01-29T03:44:32;97346.28;;;-1.67;100.00
64610;BME280;51019;46.090;6.350;2023-01-29T03:47:09;97345.56;;;-1.71;100.00
64610;BME280;51019;46.090;6.350;2023-01-29T03:49:50;97349.72;;;-1.67;100.00
64610;BME280;51019;46.090;6.350;2023-01-29T03:52:24;97276.97;;;-2.23;100.00
64610;BME280;51019;46.090;6.350;2023-01-29T03:54:56;97346.28;;;-1.67;100.00
64610;BME280;51019;46.090;6.350;2023-01-29T03:57:32;97316.84;;;-1.84;100.00
64610;BME280;51019;46.090;6.350;2023-01-29T04:00:05;97337.34;;;-1.82;100.00
64610;BME280;51019;46.090;6.350;2023-01-29T04:02:41;97343.88;;;-1.72;100.00
64610;BME280;51019;46.090;6.350;2023-01-29T04:05:13;97339.09;;;-1.83;100.00
64610;BME280;51019;46.090;6.350;2023-01-29T04:07:44;97342.88;;;-1.94;100.00
64610;BME280;51019;46.090;6.350;2023-01-29T04:12:47;97340.16;;;-1.90;100.00
64610;BME280;51019;46.090;6.350;2023-01-29T04:15:16;97334.63;;;-1.77;100.00
64610;BME280;51019;46.090;6.350;2023-01-29T04:17:48;97218.25;;;-2.62;100.00
64610;BME280;51019;46.090;6.350;2023-01-29T04:20:17;97331.41;;;-1.84;100.00
64610;BME280;51019;46.090;6.350;2023-01-29T04:22:46;97349.22;;;-1.78;100.00
64610;BME280;51019;46.090;6.350;2023-01-29T04:25:16;97314.44;;;-1.90;100.00
64610;BME280;51019;46.090;6.350;2023-01-29T04:27:56;97343.44;;;-1.85;100.00
64610;BME280;51019;46.090;6.350;2023-01-29T04:30:37;97346.16;;;-1.91;100.00
64610;BME280;51019;46.090;6.350;2023-01-29T04:33:16;97334.50;;;-2.01;100.00
64610;BME280;51019;46.090;6.350;2023-01-29T04:36:00;97346.16;;;-1.91;100.00
64610;BME280;51019;46.090;6.350;2023-01-29T04:38:39;97353.66;;;-1.83;100.00
64610;BME280;51019;46.090;6.350;2023-01-29T04:41:16;97235.25;;;-2.59;100.00
64610;BME280;51019;46.090;6.350;2023-01-29T04:43:57;97353.03;;;-1.91;100.00
64610;BME280;51019;46.090;6.350;2023-01-29T04:46:28;97350.41;;;-1.90;100.00
64610;BME280;51019;46.090;6.350;2023-01-29T04:49:04;97330.72;;;-1.89;100.00
64610;BME280;51019;46.090;6.350;2023-01-29T04:51:42;97334.53;;;-1.74;100.00
64610;BME280;51019;46.090;6.350;2023-01-29T04:54:17;97350.03;;;-1.77;100.00
64610;BME280;51019;46.090;6.350;2023-01-29T04:56:52;97356.78;;;-1.73;100.00
64610;BME280;51019;46.090;6.350;2023-01-29T04:59:29;97329.16;;;-1.93;100.00
64610;BME280;51019;46.090;6.350;2023-01-29T05:02:00;97342.22;;;-1.73;100.00
64610;BME280;51019;46.090;6.350;2023-01-29T05:04:31;97320.34;;;-1.86;100.00
64610;BME280;51019;46.090;6.350;2023-01-29T05:07:02;97315.59;;;-1.98;100.00
64610;BME280;51019;46.090;6.350;2023-01-29T05:09:31;97349.16;;;-1.76;100.00
64610;BME280;51019;46.090;6.350;2023-01-29T05:12:00;97262.56;;;-2.27;100.00
64610;BME280;51019;46.090;6.350;2023-01-29T05:14:32;97353.50;;;-1.78;100.00
64610;BME280;51019;46.090;6.350;2023-01-29T05:17:03;97350.88;;;-1.77;100.00
64610;BME280;51019;46.090;6.350;2023-01-29T05:19:31;97349.22;;;-1.78;100.00
64610;BME280;51019;46.090;6.350;2023-01-29T05:22:00;97306.41;;;-2.05;100.00
64610;BME280;51019;46.090;6.350;2023-01-29T05:24:31;97295.81;;;-2.24;100.00
64610;BME280;51019;46.090;6.350;2023-01-29T05:26:59;97359.84;;;-1.90;100.00
64610;BME280;51019;46.090;6.350;2023-01-29T05:29:46;97346.41;;;-1.98;100.00
64610;BME280;51019;46.090;6.350;2023-01-29T05:32:14;97357.44;;;-1.95;100.00
64610;BME280;51019;46.090;6.350;2023-01-29T05:34:42;97365.88;;;-1.91;100.00
64610;BME280;51019;46.090;6.350;2023-01-29T05:37:09;97364.28;;;-1.94;100.00
64610;BME280;51019;46.090;6.350;2023-01-29T05:39:37;97365.13;;;-1.93;100.00
64610;BME280;51019;46.090;6.350;2023-01-29T05:42:05;97370.34;;;-1.96;100.00
64610;BME280;51019;46.090;6.350;2023-01-29T05:44:32;97354.38;;;-2.06;100.00
64610;BME280;51019;46.090;6.350;2023-01-29T05:47:02;97379.66;;;-1.92;100.00
64610;BME280;51019;46.090;6.350;2023-01-29T05:49:30;97378.31;;;-2.05;100.00
64610;BME280;51019;46.090;6.350;2023-01-29T05:51:57;97384.16;;;-2.00;100.00
64610;BME280;51019;46.090;6.350;2023-01-29T05:54:25;97391.72;;;-1.96;100.00
64610;BME280;51019;46.090;6.350;2023-01-29T05:56:52;97398.34;;;-1.89;100.00
64610;BME280;51019;46.090;6.350;2023-01-29T05:59:19;97311.78;;;-2.42;100.00
64610;BME280;51019;46.090;6.350;2023-01-29T06:01:47;97394.31;;;-1.96;100.00
64610;BME280;51019;46.090;6.350;2023-01-29T06:04:16;97402.66;;;-1.89;100.00
64610;BME280;51019;46.090;6.350;2023-01-29T06:06:44;97417.19;;;-1.88;100.00
64610;BME280;51019;46.090;6.350;2023-01-29T06:09:11;97384.63;;;-2.15;100.00
64610;BME280;51019;46.090;6.350;2023-01-29T06:11:39;97429.22;;;-1.90;100.00
64610;BME280;51019;46.090;6.350;2023-01-29T06:14:07;97433.50;;;-1.89;100.00
64610;BME280;51019;46.090;6.350;2023-01-29T06:16:34;97379.47;;;-2.15;100.00
64610;BME280;51019;46.090;6.350;2023-01-29T06:19:01;97390.47;;;-2.12;100.00
64610;BME280;51019;46.090;6.350;2023-01-29T06:21:31;97422.59;;;-1.97;100.00
64610;BME280;51019;46.090;6.350;2023-01-29T06:23:58;97442.88;;;-1.88;100.00
64610;BME280;51019;46.090;6.350;2023-01-29T06:26:25;97434.41;;;-1.92;100.00
64610;BME280;51019;46.090;6.350;2023-01-29T06:28:52;97384.16;;;-2.30;100.00
64610;BME280;51019;46.090;6.350;2023-01-29T06:31:19;97452.16;;;-1.83;100.00
64610;BME280;51019;46.090;6.350;2023-01-29T06:33:47;97455.81;;;-1.91;100.00
64610;BME280;51019;46.090;6.350;2023-01-29T06:36:14;97457.78;;;-1.70;100.00
64610;BME280;51019;46.090;6.350;2023-01-29T06:38:44;97451.06;;;-1.75;100.00
64610;BME280;51019;46.090;6.350;2023-01-29T06:41:13;97374.69;;;-2.28;100.00
64610;BME280;51019;46.090;6.350;2023-01-29T06:43:43;97448.94;;;-1.91;100.00
64610;BME280;51019;46.090;6.350;2023-01-29T06:46:10;97440.41;;;-1.91;100.00
64610;BME280;51019;46.090;6.350;2023-01-29T06:48:46;97457.28;;;-1.83;100.00
64610;BME280;51019;46.090;6.350;2023-01-29T06:51:14;97445.94;;;-2.05;100.00
64610;BME280;51019;46.090;6.350;2023-01-29T06:53:44;97464.47;;;-1.94;100.00
64610;BME280;51019;46.090;6.350;2023-01-29T06:56:11;97478.03;;;-1.90;100.00
64610;BME280;51019;46.090;6.350;2023-01-29T06:58:39;97377.34;;;-2.60;100.00
64610;BME280;51019;46.090;6.350;2023-01-29T07:01:09;97389.56;;;-2.39;100.00
64610;BME280;51019;46.090;6.350;2023-01-29T07:03:37;97473.78;;;-1.91;100.00
64610;BME280;51019;46.090;6.350;2023-01-29T07:06:06;97470.44;;;-1.93;100.00
64610;BME280;51019;46.090;6.350;2023-01-29T07:08:35;97474.63;;;-1.91;100.00
64610;BME280;51019;46.090;6.350;2023-01-29T07:11:06;97487.28;;;-1.83;100.00
64610;BME280;51019;46.090;6.350;2023-01-29T07:13:33;97505.09;;;-1.77;100.00
64610;BME280;51019;46.090;6.350;2023-01-29T07:16:02;97516.25;;;-1.78;100.00
64610;BME280;51019;46.090;6.350;2023-01-29T07:18:31;97512.28;;;-1.90;100.00
64610;BME280;51019;46.090;6.350;2023-01-29T07:20:58;97404.84;;;-2.65;100.00
64610;BME280;51019;46.090;6.350;2023-01-29T07:23:29;97518.38;;;-1.92;100.00
64610;BME280;51019;46.090;6.350;2023-01-29T07:26:00;97514.03;;;-1.90;100.00
64610;BME280;51019;46.090;6.350;2023-01-29T07:28:29;97511.41;;;-1.89;100.00
64610;BME280;51019;46.090;6.350;2023-01-29T07:30:58;97483.59;;;-2.04;100.00
64610;BME280;51019;46.090;6.350;2023-01-29T07:33:25;97491.97;;;-1.97;100.00
64610;BME280;51019;46.090;6.350;2023-01-29T07:35:52;97505.16;;;-1.80;100.00
64610;BME280;51019;46.090;6.350;2023-01-29T07:38:20;97514.25;;;-1.68;100.00
64610;BME280;51019;46.090;6.350;2023-01-29T07:40:50;97505.81;;;-1.72;100.00
64610;BME280;51019;46.090;6.350;2023-01-29T07:43:18;97484.44;;;-2.03;100.00
64610;BME280;51019;46.090;6.350;2023-01-29T07:45:48;97425.94;;;-2.25;100.00
64610;BME280;51019;46.090;6.350;2023-01-29T07:48:15;97441.75;;;-2.07;100.00
64610;BME280;51019;46.090;6.350;2023-01-29T07:50:43;97380.25;;;-2.43;100.00
64610;BME280;51019;46.090;6.350;2023-01-29T07:53:12;97489.66;;;-1.77;100.00
64610;BME280;51019;46.090;6.350;2023-01-29T07:55:43;97508.88;;;-1.59;100.00
64610;BME280;51019;46.090;6.350;2023-01-29T07:58:11;97506.34;;;-1.61;100.00
64610;BME280;51019;46.090;6.350;2023-01-29T08:00:39;97455.91;;;-1.94;100.00
64610;BME280;51019;46.090;6.350;2023-01-29T08:03:11;97504.69;;;-1.63;100.00
64610;BME280;51019;46.090;6.350;2023-01-29T08:05:40;97497.97;;;-1.69;100.00
64610;BME280;51019;46.090;6.350;2023-01-29T08:08:08;97491.00;;;-1.64;100.00
64610;BME280;51019;46.090;6.350;2023-01-29T08:10:35;97487.88;;;-1.46;100.00
64610;BME280;51019;46.090;6.350;2023-01-29T08:13:04;97484.31;;;-1.41;100.00
64610;BME280;51019;46.090;6.350;2023-01-29T08:15:32;97432.91;;;-1.69;100.00
64610;BME280;51019;46.090;6.350;2023-01-29T08:18:00;97489.34;;;-1.37;100.00
64610;BME280;51019;46.090;6.350;2023-01-29T08:20:30;97491.47;;;-1.23;100.00
64610;BME280;51019;46.090;6.350;2023-01-29T08:22:58;97477.88;;;-1.27;100.00
64610;BME280;51019;46.090;6.350;2023-01-29T08:25:26;97476.59;;;-1.14;100.00
64610;BME280;51019;46.090;6.350;2023-01-29T08:27:54;97482.09;;;-0.98;100.00
64610;BME280;51019;46.090;6.350;2023-01-29T08:30:31;97434.81;;;-1.22;100.00
64610;BME280;51019;46.090;6.350;2023-01-29T08:33:03;97484.25;;;-0.59;97.48
64610;BME280;51019;46.090;6.350;2023-01-29T08:35:35;97482.13;;;-0.47;97.03
64610;BME280;51019;46.090;6.350;2023-01-29T08:38:05;97487.94;;;-0.42;97.31
64610;BME280;51019;46.090;6.350;2023-01-29T08:40:33;97480.16;;;-0.15;94.94
64610;BME280;51019;46.090;6.350;2023-01-29T08:43:03;97492.31;;;0.05;92.68
64610;BME280;51019;46.090;6.350;2023-01-29T08:45:33;97501.69;;;-0.18;94.22
64610;BME280;51019;46.090;6.350;2023-01-29T08:48:02;97419.41;;;-0.46;94.16
64610;BME280;51019;46.090;6.350;2023-01-29T08:50:29;97487.09;;;-0.17;100.00
64610;BME280;51019;46.090;6.350;2023-01-29T08:53:02;97502.97;;;-0.05;98.44
64610;BME280;51019;46.090;6.350;2023-01-29T08:55:29;97515.28;;;0.57;96.89
64610;BME280;51019;46.090;6.350;2023-01-29T08:57:57;97517.22;;;0.29;95.95
64610;BME280;51019;46.090;6.350;2023-01-29T09:00:24;97523.88;;;0.34;92.34
64610;BME280;51019;46.090;6.350;2023-01-29T09:02:52;97519.59;;;-0.13;91.86
64610;BME280;51019;46.090;6.350;2023-01-29T09:05:19;97497.28;;;-0.39;94.04
64610;BME280;51019;46.090;6.350;2023-01-29T09:07:47;97522.25;;;0.09;94.61
64610;BME280;51019;46.090;6.350;2023-01-29T09:10:16;97528.84;;;0.16;90.31
64610;BME280;51019;46.090;6.350;2023-01-29T09:12:43;97527.88;;;0.20;91.18
64610;BME280;51019;46.090;6.350;2023-01-29T09:15:11;97519.25;;;-0.04;92.33
64610;BME280;51019;46.090;6.350;2023-01-29T09:17:38;97520.34;;;-0.34;93.03
64610;BME280;51019;46.090;6.350;2023-01-29T09:20:07;97533.22;;;-0.34;94.24
64610;BME280;51019;46.090;6.350;2023-01-29T09:22:34;97539.34;;;-0.39;94.50
64610;BME280;51019;46.090;6.350;2023-01-29T09:25:02;97533.31;;;-0.38;92.85
64610;BME280;51019;46.090;6.350;2023-01-29T09:27:32;97533.53;;;-0.45;93.32
64610;BME280;51019;46.090;6.350;2023-01-29T09:29:59;97519.94;;;-0.75;94.23
64610;BME280;51019;46.090;6.350;2023-01-29T09:32:27;97534.88;;;-0.33;94.79
64610;BME280;51019;46.090;6.350;2023-01-29T09:34:55;97490.75;;;-0.74;92.69
64610;BME280;51019;46.090;6.350;2023-01-29T09:37:22;97546.09;;;-0.61;94.78
64610;BME280;51019;46.090;6.350;2023-01-29T09:39:50;97547.78;;;-0.60;94.91
64610;BME280;51019;46.090;6.350;2023-01-29T09:42:21;97539.66;;;-0.48;94.11
64610;BME280;51019;46.090;6.350;2023-01-29T09:44:58;97548.00;;;-0.41;95.53
64610;BME280;51019;46.090;6.350;2023-01-29T09:47:32;97546.13;;;-0.36;93.05
64610;BME280;51019;46.090;6.350;2023-01-29T09:50:02;97444.88;;;-0.88;92.28
64610;BME280;51019;46.090;6.350;2023-01-29T09:52:34;97550.00;;;-0.23;91.34
64610;BME280;51019;46.090;6.350;2023-01-29T09:55:06;97554.03;;;-0.16;91.93
64610;BME280;51019;46.090;6.350;2023-01-29T09:57:43;97455.56;;;-0.74;90.47
64610;BME280;51019;46.090;6.350;2023-01-29T10:00:19;97533.22;;;-0.34;90.91
64610;BME280;51019;46.090;6.350;2023-01-29T10:03:02;97566.59;;;-0.07;90.89
64610;BME280;51019;46.090;6.350;2023-01-29T10:05:45;97541.50;;;-0.26;90.80
64610;BME280;51019;46.090;6.350;2023-01-29T10:08:28;97571.66;;;-0.04;90.95
64610;BME280;51019;46.090;6.350;2023-01-29T10:11:07;97572.13;;;0.08;88.46
64610;BME280;51019;46.090;6.350;2023-01-29T10:13:43;97574.00;;;0.03;87.53
64610;BME280;51019;46.090;6.350;2023-01-29T10:16:29;97575.91;;;-0.03;89.23
64610;BME280;51019;46.090;6.350;2023-01-29T10:19:14;97587.13;;;0.21;86.52
64610;BME280;51019;46.090;6.350;2023-01-29T10:22:03;97562.38;;;0.16;86.57
64610;BME280;51019;46.090;6.350;2023-01-29T10:24:36;97569.38;;;0.12;87.14
64610;BME280;51019;46.090;6.350;2023-01-29T10:27:12;97548.09;;;-0.18;86.99
64610;BME280;51019;46.090;6.350;2023-01-29T10:29:41;97605.19;;;0.45;85.16
64610;BME280;51019;46.090;6.350;2023-01-29T10:32:14;97599.94;;;0.46;84.23
64610;BME280;51019;46.090;6.350;2023-01-29T10:34:48;97599.56;;;0.57;83.69
64610;BME280;51019;46.090;6.350;2023-01-29T10:37:17;97595.63;;;0.47;85.74
64610;BME280;51019;46.090;6.350;2023-01-29T10:39:46;97592.56;;;0.60;85.30
64610;BME280;51019;46.090;6.350;2023-01-29T10:42:23;97599.91;;;0.71;84.07
64610;BME280;51019;46.090;6.350;2023-01-29T10:45:04;97602.44;;;0.49;84.64
64610;BME280;51019;46.090;6.350;2023-01-29T10:50:47;97600.88;;;0.45;86.05
64610;BME280;51019;46.090;6.350;2023-01-29T10:53:38;97594.31;;;0.60;84.86
64610;BME280;51019;46.090;6.350;2023-01-29T10:56:19;97511.66;;;0.16;84.01
64610;BME280;51019;46.090;6.350;2023-01-29T10:58:51;97588.19;;;0.62;83.70
64610;BME280;51019;46.090;6.350;2023-01-29T11:01:21;97586.56;;;0.83;83.17
64610;BME280;51019;46.090;6.350;2023-01-29T11:03:57;97584.94;;;0.57;83.29
64610;BME280;51019;46.090;6.350;2023-01-29T11:06:30;97567.22;;;0.48;85.64
64610;BME280;51019;46.090;6.350;2023-01-29T11:09:03;97593.13;;;0.68;85.36
64610;BME280;51019;46.090;6.350;2023-01-29T11:11:35;97591.22;;;0.73;85.52
64610;BME280;51019;46.090;6.350;2023-01-29T11:14:09;97568.91;;;0.49;84.58
64610;BME280;51019;46.090;6.350;2023-01-29T11:16:42;97589.53;;;0.72;82.86
64610;BME280;51019;46.090;6.350;2023-01-29T11:19:11;97572.97;;;0.56;83.96
64610;BME280;51019;46.090;6.350;2023-01-29T11:22:02;97573.25;;;0.47;84.67
64610;BME280;51019;46.090;6.350;2023-01-29T11:24:30;97552.50;;;0.04;85.30
64610;BME280;51019;46.090;6.350;2023-01-29T11:26:58;97582.53;;;0.53;86.77
64610;BME280;51019;46.090;6.350;2023-01-29T11:29:33;97581.28;;;0.86;85.47
64610;BME280;51019;46.090;6.350;2023-01-29T11:32:04;97576.72;;;0.93;84.83
64610;BME280;51019;46.090;6.350;2023-01-29T11:34:33;97501.84;;;0.26;86.31
64610;BME280;51019;46.090;6.350;2023-01-29T11:37:04;97570.53;;;0.75;84.99
64610;BME280;51019;46.090;6.350;2023-01-29T11:39:43;97569.13;;;0.66;85.87
64610;BME280;51019;46.090;6.350;2023-01-29T11:42:18;97573.63;;;0.61;86.96
64610;BME280;51019;46.090;6.350;2023-01-29T11:44:46;97579.94;;;0.99;85.59
64610;BME280;51019;46.090;6.350;2023-01-29T11:47:18;97510.41;;;0.50;83.85
64610;BME280;51019;46.090;6.350;2023-01-29T11:49:49;97573.22;;;0.72;86.40
64610;BME280;51019;46.090;6.350;2023-01-29T11:52:21;97572.66;;;0.87;84.00
64610;BME280;51019;46.090;6.350;2023-01-29T11:54:51;97480.41;;;0.00;85.37
64610;BME280;51019;46.090;6.350;2023-01-29T11:57:27;97568.09;;;0.47;85.00
64610;BME280;51019;46.090;6.350;2023-01-29T11:59:58;97575.44;;;0.81;86.97
64610;BME280;51019;46.090;6.350;2023-01-29T12:02:34;97518.34;;;0.90;83.71
64610;BME280;51019;46.090;6.350;2023-01-29T12:05:05;97544.06;;;0.92;83.45
64610;BME280;51019;46.090;6.350;2023-01-29T12:07:42;97495.84;;;1.14;81.88
64610;BME280;51019;46.090;6.350;2023-01-29T12:10:28;97536.00;;;1.43;82.92
64610;BME280;51019;46.090;6.350;2023-01-29T12:13:04;97551.44;;;1.44;82.94
64610;BME280;51019;46.090;6.350;2023-01-29T12:15:31;97433.63;;;1.00;83.03
64610;BME280;51019;46.090;6.350;2023-01-29T12:18:04;97525.34;;;1.51;81.37
64610;BME280;51019;46.090;6.350;2023-01-29T12:20:41;97536.59;;;1.70;81.02
64610;BME280;51019;46.090;6.350;2023-01-29T12:23:21;97533.72;;;1.77;82.18
64610;BME280;51019;46.090;6.350;2023-01-29T12:25:55;97504.44;;;1.57;83.30
64610;BME280;51019;46.090;6.350;2023-01-29T12:28:38;97521.63;;;1.58;81.99
64610;BME280;51019;46.090;6.350;2023-01-29T12:31:21;97520.00;;;1.96;82.35
64610;BME280;51019;46.090;6.350;2023-01-29T12:33:54;97513.53;;;1.86;81.61
64610;BME280;51019;46.090;6.350;2023-01-29T12:36:30;97509.47;;;2.00;81.65
64610;BME280;51019;46.090;6.350;2023-01-29T12:39:01;97514.81;;;1.96;81.34
64610;BME280;51019;46.090;6.350;2023-01-29T12:41:35;97504.56;;;1.74;80.42
64610;BME280;51019;46.090;6.350;2023-01-29T12:44:11;97510.63;;;1.93;81.94
64610;BME280;51019;46.090;6.350;2023-01-29T12:46:44;97501.06;;;1.95;82.97
64610;BME280;51019;46.090;6.350;2023-01-29T12:49:17;97478.72;;;1.74;82.58
64610;BME280;51019;46.090;6.350;2023-01-29T12:51:52;97405.25;;;1.20;83.19
64610;BME280;51019;46.090;6.350;2023-01-29T12:54:30;97496.69;;;1.77;86.01
64610;BME280;51019;46.090;6.350;2023-01-29T12:57:02;97480.13;;;1.40;86.79
64610;BME280;51019;46.090;6.350;2023-01-29T12:59:38;97485.69;;;1.31;85.69
64610;BME280;51019;46.090;6.350;2023-01-29T13:02:17;97468.75;;;1.24;85.93
64610;BME280;51019;46.090;6.350;2023-01-29T13:04:54;97481.66;;;1.46;84.33
64610;BME280;51019;46.090;6.350;2023-01-29T13:07:24;97482.84;;;1.37;83.80
64610;BME280;51019;46.090;6.350;2023-01-29T13:10:02;97472.59;;;1.14;84.01
64610;BME280;51019;46.090;6.350;2023-01-29T13:12:32;97483.72;;;1.16;85.74
64610;BME280;51019;46.090;6.350;2023-01-29T13:15:03;97487.25;;;1.14;86.19
64610;BME280;51019;46.090;6.350;2023-01-29T13:17:35;97471.19;;;1.07;86.31
64610;BME280;51019;46.090;6.350;2023-01-29T13:20:10;97483.84;;;1.13;88.92
64610;BME280;51019;46.090;6.350;2023-01-29T13:22:39;97462.44;;;1.11;90.00
64610;BME280;51019;46.090;6.350;2023-01-29T13:25:14;97475.06;;;1.17;89.32
64610;BME280;51019;46.090;6.350;2023-01-29T13:27:43;97404.94;;;0.86;88.41
64610;BME280;51019;46.090;6.350;2023-01-29T13:30:24;97443.69;;;1.06;88.87
64610;BME280;51019;46.090;6.350;2023-01-29T13:32:53;97436.47;;;1.14;87.56
64610;BME280;51019;46.090;6.350;2023-01-29T13:35:34;97466.91;;;1.48;87.27